Terminal Aerodrome Forecast
Issued by NWS

Home | Current Version | Previous Version | Text Only | Print | Product List | Glossary On
Versions: 1 2 3 4 5 6 7 8 9 10 11 12 13 14 15 16 17 18 19 20 21 22
110
FTUS43 KAPX 300617 AAA
TAFPLN
TAF AMD
KPLN 300617Z 3006/3106 10006KT P6SM OVC100
     FM301300 10010G18KT P6SM OVC080
     FM301500 10012G21KT P6SM OVC060
     FM302100 09015G25KT P6SM -RA OVC035
     FM310100 08014G22KT 5SM -RASN OVC025
     FM310500 08013G22KT 3SM -SN BR OVC015=

USA.gov is the U.S. government's official web portal to all federal, state and local government web resources and services.